This is the latest recevied weather packets stored in our database for station/object YN1JLX-13. If no packets are shown the sender has not sent any weather packets the latest 10 day(s).
| Time | Temp. | Humidity | Pressure | Rain* | Wind** | Luminosity | Snow |
|---|---|---|---|---|---|---|---|
| 1778302674 | 21.11° C | 66% | 1010 hPa | 0 mm | - | - | - |
| 1778302073 | 21.67° C | 66% | 1010 hPa | 0 mm | - | - | - |
| 1778301473 | 22.78° C | 66% | 1010 hPa | 0 mm | - | - | - |
| 1778300873 | 23.89° C | 66% | 1010 hPa | 0 mm | - | - | - |
| 1778300272 | 19.44° C | 56% | 1010 hPa | 0 mm | - | - | - |
| 1778299672 | 20.56° C | 56% | 1010 hPa | 0 mm | - | - | - |
| 1778299072 | 20° C | 56% | 1010 hPa | 0 mm | - | - | - |
| 1778298471 | 20.56° C | 56% | 1010 hPa | 0 mm | - | - | - |
| 1778297871 | 21.67° C | 56% | 1010 hPa | 0 mm | - | - | - |
| 1778297271 | 22.78° C | 56% | 1009 hPa | 0 mm | - | - | - |
| 1778296670 | 22.78° C | 56% | 1009 hPa | 0 mm | - | - | - |
| 1778296070 | 22.22° C | 55% | 1009 hPa | 0 mm | - | - | - |
| 1778295470 | 23.33° C | 55% | 1009 hPa | 0 mm | - | - | - |
| 1778294869 | 23.89° C | 55% | 1009 hPa | 0 mm | - | - | - |
| 1778294269 | 22.22° C | 53% | 1009 hPa | 0 mm | - | - | - |
| 1778293669 | 23.33° C | 53% | 1008 hPa | 0 mm | - | - | - |
| 1778293068 | 22.78° C | 51% | 1008 hPa | 0 mm | - | - | - |
| 1778292468 | 23.89° C | 51% | 1008 hPa | 0 mm | - | - | - |
| 1778291868 | 25° C | 51% | 1008 hPa | 0 mm | - | - | - |
| 1778291267 | 25° C | 51% | 1008 hPa | 0 mm | - | - | - |
| 1778290667 | 23.33° C | 46% | 1008 hPa | 0 mm | - | - | - |
| 1778290067 | 24.44° C | 45% | 1007 hPa | 0 mm | - | - | - |
| 1778289466 | 25.56° C | 45% | 1007 hPa | 0 mm | - | - | - |
| 1778288866 | 24.44° C | 41% | 1007 hPa | 0 mm | - | - | - |
| 1778288266 | 25.56° C | 41% | 1007 hPa | 0 mm | - | - | - |
* Rain latest hour (hover to see other rain measurements)
** Current wind speed in m/s (hover to see current wind gust speed)